Tokyo Maru — JG5666 — position and weather

sailwx.info

Track history (hours):
 
Tides and Currents Weather Stations Pressure Air Temp Water Temp Dewpoint Dewpoint Depression Visibility Wind Speed Wind Dir Waves Ship Positions

Tokyo Maru

Last reported at 2018-Feb-19 07:43 UTC. Time now 2018-Feb-19 08:23 UTC.
Position N 35°38' E 139°46'.

Length 40 m; draft 4 m.

Type: Tug. MMSI: 431100997.

Date/timePositionNaut miles runAvg speedWind from/ knotsBaromVisibWave heightAir tempDewpointWater temp
2018-Feb-19 07:43N 35°38' E 139°46'0 0.0
2018-Feb-19 07:30N 35°38' E 139°46'0 0.0
2018-Feb-19 06:57N 35°38' E 139°46'0 0.0
2018-Feb-19 06:30N 35°38' E 139°46'0 0.0
2018-Feb-19 06:00N 35°38' E 139°46'0 0.0
2018-Feb-19 05:27N 35°38' E 139°46'0 0.0
2018-Feb-19 04:59N 35°38' E 139°46'0 0.0
2018-Feb-19 04:24N 35°38' E 139°46'0 0.0
2018-Feb-19 03:25N 35°38' E 139°46'0 1.0
2018-Feb-19 03:00N 35°39' E 139°46'3 5.4
2018-Feb-19 02:30N 35°36' E 139°46'2 4.4
2018-Feb-19 02:01N 35°35' E 139°48'4 0.5
2018-Feb-18 16:52N 35°38' E 139°46'0 0.0
2018-Feb-18 16:18N 35°38' E 139°46'0 0.0
2018-Feb-18 14:48N 35°38' E 139°46'0 0.0
2018-Feb-18 14:29N 35°38' E 139°46'0 0.0
2018-Feb-18 13:59N 35°38' E 139°46'0 0.0
2018-Feb-18 13:29N 35°38' E 139°46'0 0.0
2018-Feb-18 12:01N 35°38' E 139°46'0 0.0
2018-Feb-18 11:52N 35°38' E 139°46'0 0.0
2018-Feb-18 05:18N 35°38' E 139°46'0 0.0
2018-Feb-18 04:46N 35°38' E 139°46'0 0.0
2018-Feb-18 04:28N 35°38' E 139°46'0 0.0
2018-Feb-18 03:59N 35°38' E 139°46'0 0.0
2018-Feb-18 03:25N 35°38' E 139°46'0 0.0
2018-Feb-18 02:35N 35°38' E 139°46'0 0.0
2018-Feb-18 02:18N 35°38' E 139°46'0 0.0
2018-Feb-18 02:00N 35°38' E 139°46'0 0.0
2018-Feb-18 01:26N 35°38' E 139°46'0 0.0
2018-Feb-17 21:08N 35°38' E 139°45'211.3
2018-Feb-17 21:00N 35°37' E 139°46'0 0.8
2018-Feb-17 20:30N 35°37' E 139°47'0 0.3
2018-Feb-17 20:00N 35°37' E 139°47'0 0.6
2018-Feb-17 19:30N 35°36' E 139°46'1 1.0
2018-Feb-17 19:00N 35°36' E 139°47'2 4.6
2018-Feb-17 18:29N 35°38' E 139°46'0 0.0
2018-Feb-17 18:00N 35°38' E 139°46'0 0.0
2018-Feb-17 17:30N 35°38' E 139°46'0 0.1
2018-Feb-17 17:00N 35°38' E 139°46'0 0.1
2018-Feb-17 16:30N 35°38' E 139°46'0 0.0
2018-Feb-17 15:02N 35°38' E 139°46'0 0.3
2018-Feb-17 14:51N 35°38' E 139°46'2 6.4
2018-Feb-17 14:30N 35°36' E 139°46'0 0.5
2018-Feb-17 14:00N 35°36' E 139°46'2 3.1
2018-Feb-17 13:30N 35°35' E 139°48'0 0.9
2018-Feb-17 13:00N 35°35' E 139°47'1 1.5
2018-Feb-17 12:30N 35°35' E 139°47'0 0.0
2018-Feb-17 11:59N 35°35' E 139°47'3 6.8
2018-Feb-17 11:30N 35°36' E 139°51'3 3.1
2018-Feb-17 10:38N 35°37' E 139°48'1 7.2
2018-Feb-17 10:29N 35°36' E 139°47'2 3.9
2018-Feb-17 09:59N 35°38' E 139°46'1 1.5
2018-Feb-17 09:27N 35°37' E 139°46'2 3.9
2018-Feb-17 09:00N 35°36' E 139°47'3 5.1
2018-Feb-17 08:30N 35°34' E 139°49'5 8.5
2018-Feb-17 07:58N 35°38' E 139°46'1 0.2
2018-Feb-17 04:53N 35°38' E 139°46'0 0.0
2018-Feb-17 04:28N 35°38' E 139°46'0 0.0
2018-Feb-17 03:58N 35°38' E 139°46'0 0.0
2018-Feb-17 03:28N 35°38' E 139°46'0 0.0
2018-Feb-17 02:57N 35°38' E 139°46'0 0.0
2018-Feb-17 02:30N 35°38' E 139°46'0 0.0
2018-Feb-17 01:42N 35°38' E 139°46'0 0.0
2018-Feb-17 01:26N 35°38' E 139°46'0 0.0
2018-Feb-17 01:00N 35°38' E 139°46'0 0.0
2018-Feb-17 00:31N 35°38' E 139°46'0 0.0
2018-Feb-16 20:02N 35°38' E 139°46'0 0.0
2018-Feb-16 19:56N 35°38' E 139°46'0 0.0
2018-Feb-16 19:26N 35°38' E 139°46'0 0.0
2018-Feb-16 18:56N 35°38' E 139°46'0 0.0
2018-Feb-16 18:19N 35°38' E 139°46'0 0.0
2018-Feb-16 17:59N 35°38' E 139°46'0 0.0
2018-Feb-16 17:30N 35°38' E 139°46'0 0.0
2018-Feb-16 16:59N 35°38' E 139°46'0 0.0
2018-Feb-16 16:21N 35°38' E 139°46'0 0.0
2018-Feb-16 15:59N 35°38' E 139°46'0 0.0
2018-Feb-16 15:30N 35°38' E 139°46'0 0.0
2018-Feb-16 15:00N 35°38' E 139°46'0 0.0
2018-Feb-16 14:29N 35°38' E 139°46'0 0.0
2018-Feb-16 13:58N 35°38' E 139°46'0 0.0
2018-Feb-16 13:24N 35°38' E 139°46'0 0.0
2018-Feb-16 12:54N 35°38' E 139°46'0 0.0
2018-Feb-16 10:37N 35°38' E 139°45'1 8.4
2018-Feb-16 10:30N 35°37' E 139°46'1 2.0
2018-Feb-16 10:00N 35°36' E 139°47'0 0.5
2018-Feb-16 09:30N 35°36' E 139°47'1 1.3
2018-Feb-16 09:00N 35°37' E 139°46'2 0.9
2018-Feb-16 06:37N 35°39' E 139°46'0 0.0
2018-Feb-16 06:26N 35°39' E 139°46'0 0.0
2018-Feb-16 05:59N 35°39' E 139°46'0 0.0
2018-Feb-16 03:33N 35°39' E 139°46'0 0.0
2018-Feb-16 02:41N 35°39' E 139°46'0 0.0
2018-Feb-16 02:19N 35°39' E 139°46'0 0.0
2018-Feb-15 23:04N 35°39' E 139°46'0 0.0
2018-Feb-15 22:59N 35°39' E 139°46'2 5.0
2018-Feb-15 22:30N 35°36' E 139°46'1 2.0
2018-Feb-15 22:00N 35°36' E 139°47'1 2.2
2018-Feb-15 21:30N 35°35' E 139°48'3 5.5
2018-Feb-15 21:00N 35°37' E 139°46'1 1.1
2018-Feb-15 20:30N 35°38' E 139°46'1 0.2
2018-Feb-15 16:01N 35°39' E 139°46'0 0.0
2018-Feb-15 11:54N 35°39' E 139°46'0 0.0
2018-Feb-15 11:17N 35°39' E 139°46'0 0.0
2018-Feb-15 06:55N 35°39' E 139°46'1 1.4
2018-Feb-15 06:24N 35°38' E 139°46'1 2.2
2018-Feb-15 06:00N 35°37' E 139°46'2 3.4
2018-Feb-15 05:29N 35°36' E 139°47'3 5.1
2018-Feb-15 04:59N 35°34' E 139°49'2 3.0
2018-Feb-15 04:28N 35°35' E 139°48'4 3.0
2018-Feb-15 03:06N 35°39' E 139°46'0 0.0
2018-Feb-15 03:00N 35°39' E 139°46'0 0.0
2018-Feb-15 02:29N 35°39' E 139°46'0 0.0
2018-Feb-15 02:00N 35°39' E 139°46'0 0.0
2018-Feb-15 00:50N 35°39' E 139°46'0 0.0
2018-Feb-15 00:28N 35°39' E 139°46'0 0.0
2018-Feb-14 23:58N 35°39' E 139°46'0 0.0
2018-Feb-14 23:28N 35°39' E 139°46'0 0.0
2018-Feb-14 22:30N 35°39' E 139°46'0 0.0
2018-Feb-14 22:00N 35°39' E 139°46'0 0.0
2018-Feb-14 18:33N 35°39' E 139°46'0 0.0
2018-Feb-14 18:11N 35°39' E 139°46'0 0.0
2018-Feb-14 10:45N 35°39' E 139°46'2 9.5
2018-Feb-14 10:30N 35°36' E 139°47'1 1.1
2018-Feb-14 10:00N 35°36' E 139°47'2 3.6
2018-Feb-14 09:30N 35°35' E 139°49'2 3.7
2018-Feb-14 09:01N 35°35' E 139°46'0 0.0
2018-Feb-14 08:29N 35°35' E 139°46'0 0.0
2018-Feb-14 08:00N 35°35' E 139°46'1 2.4
2018-Feb-14 07:30N 35°36' E 139°46'1 2.6
2018-Feb-14 07:00N 35°38' E 139°46'1 1.1
2018-Feb-14 06:08N 35°39' E 139°46'0 0.0
2018-Feb-14 05:53N 35°39' E 139°46'0 0.0
2018-Feb-14 05:28N 35°39' E 139°46'0 0.0
2018-Feb-14 04:59N 35°39' E 139°46'0 0.0
2018-Feb-14 04:26N 35°39' E 139°46'0 0.0
2018-Feb-14 03:56N 35°39' E 139°46'0 0.0
2018-Feb-14 03:30N 35°39' E 139°46'0 0.0
2018-Feb-14 02:55N 35°39' E 139°46'0 0.0
2018-Feb-14 02:29N 35°39' E 139°46'0 0.0
2018-Feb-14 01:59N 35°39' E 139°46'0 0.0
2018-Feb-14 01:28N 35°39' E 139°46'0 0.0
2018-Feb-14 01:00N 35°39' E 139°46'0 0.0
2018-Feb-14 00:26N 35°39' E 139°46'0 0.0
2018-Feb-13 23:59N 35°39' E 139°46'0 0.3
2018-Feb-13 23:23N 35°39' E 139°46'3 7.7
2018-Feb-13 23:00N 35°36' E 139°46'1 3.0
2018-Feb-13 22:31N 35°35' E 139°48'1 2.2
2018-Feb-13 22:00N 35°35' E 139°47'0 0.0
2018-Feb-13 21:31N 35°35' E 139°47'0 0.0
2018-Feb-13 21:01N 35°35' E 139°47'0 0.0
2018-Feb-13 20:30N 35°35' E 139°47'1 1.9
2018-Feb-13 19:59N 35°36' E 139°46'1 1.8
2018-Feb-13 19:30N 35°37' E 139°46'2 3.0
2018-Feb-13 18:57N 35°39' E 139°46'0 0.0
2018-Feb-13 18:28N 35°39' E 139°46'0 0.0
2018-Feb-13 18:00N 35°39' E 139°46'0 0.0
2018-Feb-13 17:30N 35°39' E 139°46'0 0.0
2018-Feb-13 17:00N 35°39' E 139°46'0 0.0
2018-Feb-13 16:30N 35°39' E 139°46'0 0.0
2018-Feb-13 16:00N 35°39' E 139°46'0 0.0
2018-Feb-13 15:28N 35°39' E 139°46'0 0.0
2018-Feb-13 14:59N 35°39' E 139°46'0 0.0
2018-Feb-13 14:29N 35°39' E 139°46'0 0.0
2018-Feb-13 13:58N 35°39' E 139°46'0 0.0
2018-Feb-13 13:30N 35°39' E 139°46'0 0.0
2018-Feb-13 13:00N 35°39' E 139°46'0 0.0
2018-Feb-13 12:28N 35°39' E 139°46'0 0.0
2018-Feb-13 11:59N 35°39' E 139°46'0 0.0
2018-Feb-13 11:30N 35°39' E 139°46'0 0.0
2018-Feb-13 11:01N 35°39' E 139°46'0 0.0
2018-Feb-13 10:30N 35°39' E 139°46'0 0.0
2018-Feb-13 09:58N 35°39' E 139°46'0 0.0
2018-Feb-13 09:30N 35°39' E 139°46'0 0.0
2018-Feb-13 09:00N 35°39' E 139°46'0 0.0
2018-Feb-13 08:26N 35°39' E 139°46'0 0.0
2018-Feb-13 08:00N 35°39' E 139°46'0 0.0
2018-Feb-13 07:30N 35°39' E 139°46'0 0.0
2018-Feb-13 06:43N 35°39' E 139°46'0 0.0
2018-Feb-13 06:30N 35°39' E 139°46'0 0.0
2018-Feb-13 05:49N 35°39' E 139°46'0 0.0
2018-Feb-13 05:12N 35°39' E 139°46'0 0.0
2018-Feb-13 04:49N 35°39' E 139°46'0 0.0
2018-Feb-13 00:39N 35°39' E 139°46'0 0.0
2018-Feb-13 00:17N 35°39' E 139°46'0 0.0
2018-Feb-12 23:43N 35°39' E 139°46'0 0.3
2018-Feb-12 23:21N 35°39' E 139°46'3 7.1
2018-Feb-12 22:58N 35°36' E 139°46'1 2.4
2018-Feb-12 22:30N 35°35' E 139°47'2 4.6
2018-Feb-12 21:59N 35°34' E 139°50'3 6.3
2018-Feb-12 21:29N 35°36' E 139°47'3 0.2
2018-Feb-12 09:05N 35°39' E 139°46'110.6
2018-Feb-12 09:00N 35°38' E 139°46'2 3.3
2018-Feb-12 08:30N 35°36' E 139°47'1 1.9
2018-Feb-12 07:59N 35°37' E 139°46'1 0.1
2018-Feb-11 22:43N 35°38' E 139°46'210.0
2018-Feb-11 22:30N 35°36' E 139°47'1 1.2
2018-Feb-11 21:58N 35°36' E 139°47'1 1.6
2018-Feb-11 21:30N 35°35' E 139°47'0 0.1
2018-Feb-11 21:00N 35°35' E 139°47'0 0.0
2018-Feb-11 20:30N 35°35' E 139°47'1 2.3
2018-Feb-11 20:00N 35°37' E 139°47'2 3.3
2018-Feb-11 19:30N 35°38' E 139°46'1 0.4
2018-Feb-11 17:17N 35°39' E 139°46'0 0.0
2018-Feb-11 16:42N 35°39' E 139°46'0 0.0
2018-Feb-11 16:27N 35°39' E 139°46'0 0.0
2018-Feb-11 05:27N 35°39' E 139°46'0 0.0
2018-Feb-11 04:59N 35°39' E 139°46'0 0.0
2018-Feb-11 03:18N 35°39' E 139°46'0 0.0
2018-Feb-11 02:28N 35°39' E 139°46'0 0.1
2018-Feb-10 23:08N 35°38' E 139°46'110.8
2018-Feb-10 23:01N 35°37' E 139°46'1 2.5
2018-Feb-10 22:30N 35°36' E 139°47'3 6.9
2018-Feb-10 22:00N 35°34' E 139°50'0 0.6
2018-Feb-10 21:29N 35°34' E 139°50'3 6.8
2018-Feb-10 21:00N 35°36' E 139°47'2 4.1
2018-Feb-10 20:30N 35°38' E 139°46'1 0.3
2018-Feb-10 17:59N 35°39' E 139°46'0 0.0
2018-Feb-10 17:29N 35°39' E 139°46'0 0.0
2018-Feb-10 16:58N 35°39' E 139°46'0 0.0
2018-Feb-10 16:26N 35°39' E 139°46'0 0.0
2018-Feb-10 12:25N 35°39' E 139°46'0 0.0
2018-Feb-10 11:54N 35°39' E 139°46'0 0.0
2018-Feb-10 10:11N 35°39' E 139°46'0 0.0
2018-Feb-10 09:58N 35°39' E 139°46'  
Track history (hours):
 
Tides and Currents Weather Stations Pressure Air Temp Water Temp Dewpoint Dewpoint Depression Visibility Wind Speed Wind Dir Waves Ship Positions

Tokyo Maru

Last reported at 2018-Feb-19 07:43 UTC. Time now 2018-Feb-19 08:23 UTC.
Position N 35°38' E 139°46'.

Length 40 m; draft 4 m.

Type: Tug. MMSI: 431100997.

Date/timePositionNaut miles runAvg speedWind from/ knotsBaromVisibWave heightAir tempDewpointWater temp
2018-Feb-19 07:43N 35°38' E 139°46'0 0.0
2018-Feb-19 07:30N 35°38' E 139°46'0 0.0
2018-Feb-19 06:57N 35°38' E 139°46'0 0.0
2018-Feb-19 06:30N 35°38' E 139°46'0 0.0
2018-Feb-19 06:00N 35°38' E 139°46'0 0.0
2018-Feb-19 05:27N 35°38' E 139°46'0 0.0
2018-Feb-19 04:59N 35°38' E 139°46'0 0.0
2018-Feb-19 04:24N 35°38' E 139°46'0 0.0
2018-Feb-19 03:25N 35°38' E 139°46'0 1.0
2018-Feb-19 03:00N 35°39' E 139°46'3 5.4
2018-Feb-19 02:30N 35°36' E 139°46'2 4.4
2018-Feb-19 02:01N 35°35' E 139°48'4 0.5
2018-Feb-18 16:52N 35°38' E 139°46'0 0.0
2018-Feb-18 16:18N 35°38' E 139°46'0 0.0
2018-Feb-18 14:48N 35°38' E 139°46'0 0.0
2018-Feb-18 14:29N 35°38' E 139°46'0 0.0
2018-Feb-18 13:59N 35°38' E 139°46'0 0.0
2018-Feb-18 13:29N 35°38' E 139°46'0 0.0
2018-Feb-18 12:01N 35°38' E 139°46'0 0.0
2018-Feb-18 11:52N 35°38' E 139°46'0 0.0
2018-Feb-18 05:18N 35°38' E 139°46'0 0.0
2018-Feb-18 04:46N 35°38' E 139°46'0 0.0
2018-Feb-18 04:28N 35°38' E 139°46'0 0.0
2018-Feb-18 03:59N 35°38' E 139°46'0 0.0
2018-Feb-18 03:25N 35°38' E 139°46'0 0.0
2018-Feb-18 02:35N 35°38' E 139°46'0 0.0
2018-Feb-18 02:18N 35°38' E 139°46'0 0.0
2018-Feb-18 02:00N 35°38' E 139°46'0 0.0
2018-Feb-18 01:26N 35°38' E 139°46'0 0.0
2018-Feb-17 21:08N 35°38' E 139°45'211.3
2018-Feb-17 21:00N 35°37' E 139°46'0 0.8
2018-Feb-17 20:30N 35°37' E 139°47'0 0.3
2018-Feb-17 20:00N 35°37' E 139°47'0 0.6
2018-Feb-17 19:30N 35°36' E 139°46'1 1.0
2018-Feb-17 19:00N 35°36' E 139°47'2 4.6
2018-Feb-17 18:29N 35°38' E 139°46'0 0.0
2018-Feb-17 18:00N 35°38' E 139°46'0 0.0
2018-Feb-17 17:30N 35°38' E 139°46'0 0.1
2018-Feb-17 17:00N 35°38' E 139°46'0 0.1
2018-Feb-17 16:30N 35°38' E 139°46'0 0.0
2018-Feb-17 15:02N 35°38' E 139°46'0 0.3
2018-Feb-17 14:51N 35°38' E 139°46'2 6.4
2018-Feb-17 14:30N 35°36' E 139°46'0 0.5
2018-Feb-17 14:00N 35°36' E 139°46'2 3.1
2018-Feb-17 13:30N 35°35' E 139°48'0 0.9
2018-Feb-17 13:00N 35°35' E 139°47'1 1.5
2018-Feb-17 12:30N 35°35' E 139°47'0 0.0
2018-Feb-17 11:59N 35°35' E 139°47'3 6.8
2018-Feb-17 11:30N 35°36' E 139°51'3 3.1
2018-Feb-17 10:38N 35°37' E 139°48'1 7.2
2018-Feb-17 10:29N 35°36' E 139°47'2 3.9
2018-Feb-17 09:59N 35°38' E 139°46'1 1.5
2018-Feb-17 09:27N 35°37' E 139°46'2 3.9
2018-Feb-17 09:00N 35°36' E 139°47'3 5.1
2018-Feb-17 08:30N 35°34' E 139°49'5 8.5
2018-Feb-17 07:58N 35°38' E 139°46'1 0.2
2018-Feb-17 04:53N 35°38' E 139°46'0 0.0
2018-Feb-17 04:28N 35°38' E 139°46'0 0.0
2018-Feb-17 03:58N 35°38' E 139°46'0 0.0
2018-Feb-17 03:28N 35°38' E 139°46'0 0.0
2018-Feb-17 02:57N 35°38' E 139°46'0 0.0
2018-Feb-17 02:30N 35°38' E 139°46'0 0.0
2018-Feb-17 01:42N 35°38' E 139°46'0 0.0
2018-Feb-17 01:26N 35°38' E 139°46'0 0.0
2018-Feb-17 01:00N 35°38' E 139°46'0 0.0
2018-Feb-17 00:31N 35°38' E 139°46'0 0.0
2018-Feb-16 20:02N 35°38' E 139°46'0 0.0
2018-Feb-16 19:56N 35°38' E 139°46'0 0.0
2018-Feb-16 19:26N 35°38' E 139°46'0 0.0
2018-Feb-16 18:56N 35°38' E 139°46'0 0.0
2018-Feb-16 18:19N 35°38' E 139°46'0 0.0
2018-Feb-16 17:59N 35°38' E 139°46'0 0.0
2018-Feb-16 17:30N 35°38' E 139°46'0 0.0
2018-Feb-16 16:59N 35°38' E 139°46'0 0.0
2018-Feb-16 16:21N 35°38' E 139°46'0 0.0
2018-Feb-16 15:59N 35°38' E 139°46'0 0.0
2018-Feb-16 15:30N 35°38' E 139°46'0 0.0
2018-Feb-16 15:00N 35°38' E 139°46'0 0.0
2018-Feb-16 14:29N 35°38' E 139°46'0 0.0
2018-Feb-16 13:58N 35°38' E 139°46'0 0.0
2018-Feb-16 13:24N 35°38' E 139°46'0 0.0
2018-Feb-16 12:54N 35°38' E 139°46'0 0.0
2018-Feb-16 10:37N 35°38' E 139°45'1 8.4
2018-Feb-16 10:30N 35°37' E 139°46'1 2.0
2018-Feb-16 10:00N 35°36' E 139°47'0 0.5
2018-Feb-16 09:30N 35°36' E 139°47'1 1.3
2018-Feb-16 09:00N 35°37' E 139°46'2 0.9
2018-Feb-16 06:37N 35°39' E 139°46'0 0.0
2018-Feb-16 06:26N 35°39' E 139°46'0 0.0
2018-Feb-16 05:59N 35°39' E 139°46'0 0.0
2018-Feb-16 03:33N 35°39' E 139°46'0 0.0
2018-Feb-16 02:41N 35°39' E 139°46'0 0.0
2018-Feb-16 02:19N 35°39' E 139°46'0 0.0
2018-Feb-15 23:04N 35°39' E 139°46'0 0.0
2018-Feb-15 22:59N 35°39' E 139°46'2 5.0
2018-Feb-15 22:30N 35°36' E 139°46'1 2.0
2018-Feb-15 22:00N 35°36' E 139°47'1 2.2
2018-Feb-15 21:30N 35°35' E 139°48'3 5.5
2018-Feb-15 21:00N 35°37' E 139°46'1 1.1
2018-Feb-15 20:30N 35°38' E 139°46'1 0.2
2018-Feb-15 16:01N 35°39' E 139°46'0 0.0
2018-Feb-15 11:54N 35°39' E 139°46'0 0.0
2018-Feb-15 11:17N 35°39' E 139°46'0 0.0
2018-Feb-15 06:55N 35°39' E 139°46'1 1.4
2018-Feb-15 06:24N 35°38' E 139°46'1 2.2
2018-Feb-15 06:00N 35°37' E 139°46'2 3.4
2018-Feb-15 05:29N 35°36' E 139°47'3 5.1
2018-Feb-15 04:59N 35°34' E 139°49'2 3.0
2018-Feb-15 04:28N 35°35' E 139°48'4 3.0
2018-Feb-15 03:06N 35°39' E 139°46'0 0.0
2018-Feb-15 03:00N 35°39' E 139°46'0 0.0
2018-Feb-15 02:29N 35°39' E 139°46'0 0.0
2018-Feb-15 02:00N 35°39' E 139°46'0 0.0
2018-Feb-15 00:50N 35°39' E 139°46'0 0.0
2018-Feb-15 00:28N 35°39' E 139°46'0 0.0
2018-Feb-14 23:58N 35°39' E 139°46'0 0.0
2018-Feb-14 23:28N 35°39' E 139°46'0 0.0
2018-Feb-14 22:30N 35°39' E 139°46'0 0.0
2018-Feb-14 22:00N 35°39' E 139°46'0 0.0
2018-Feb-14 18:33N 35°39' E 139°46'0 0.0
2018-Feb-14 18:11N 35°39' E 139°46'0 0.0
2018-Feb-14 10:45N 35°39' E 139°46'2 9.5
2018-Feb-14 10:30N 35°36' E 139°47'1 1.1
2018-Feb-14 10:00N 35°36' E 139°47'2 3.6
2018-Feb-14 09:30N 35°35' E 139°49'2 3.7
2018-Feb-14 09:01N 35°35' E 139°46'0 0.0
2018-Feb-14 08:29N 35°35' E 139°46'0 0.0
2018-Feb-14 08:00N 35°35' E 139°46'1 2.4
2018-Feb-14 07:30N 35°36' E 139°46'1 2.6
2018-Feb-14 07:00N 35°38' E 139°46'1 1.1
2018-Feb-14 06:08N 35°39' E 139°46'0 0.0
2018-Feb-14 05:53N 35°39' E 139°46'0 0.0
2018-Feb-14 05:28N 35°39' E 139°46'0 0.0
2018-Feb-14 04:59N 35°39' E 139°46'0 0.0
2018-Feb-14 04:26N 35°39' E 139°46'0 0.0
2018-Feb-14 03:56N 35°39' E 139°46'0 0.0
2018-Feb-14 03:30N 35°39' E 139°46'0 0.0
2018-Feb-14 02:55N 35°39' E 139°46'0 0.0
2018-Feb-14 02:29N 35°39' E 139°46'0 0.0
2018-Feb-14 01:59N 35°39' E 139°46'0 0.0
2018-Feb-14 01:28N 35°39' E 139°46'0 0.0
2018-Feb-14 01:00N 35°39' E 139°46'0 0.0
2018-Feb-14 00:26N 35°39' E 139°46'0 0.0
2018-Feb-13 23:59N 35°39' E 139°46'0 0.3
2018-Feb-13 23:23N 35°39' E 139°46'3 7.7
2018-Feb-13 23:00N 35°36' E 139°46'1 3.0
2018-Feb-13 22:31N 35°35' E 139°48'1 2.2
2018-Feb-13 22:00N 35°35' E 139°47'0 0.0
2018-Feb-13 21:31N 35°35' E 139°47'0 0.0
2018-Feb-13 21:01N 35°35' E 139°47'0 0.0
2018-Feb-13 20:30N 35°35' E 139°47'1 1.9
2018-Feb-13 19:59N 35°36' E 139°46'1 1.8
2018-Feb-13 19:30N 35°37' E 139°46'2 3.0
2018-Feb-13 18:57N 35°39' E 139°46'0 0.0
2018-Feb-13 18:28N 35°39' E 139°46'0 0.0
2018-Feb-13 18:00N 35°39' E 139°46'0 0.0
2018-Feb-13 17:30N 35°39' E 139°46'0 0.0
2018-Feb-13 17:00N 35°39' E 139°46'0 0.0
2018-Feb-13 16:30N 35°39' E 139°46'0 0.0
2018-Feb-13 16:00N 35°39' E 139°46'0 0.0
2018-Feb-13 15:28N 35°39' E 139°46'0 0.0
2018-Feb-13 14:59N 35°39' E 139°46'0 0.0
2018-Feb-13 14:29N 35°39' E 139°46'0 0.0
2018-Feb-13 13:58N 35°39' E 139°46'0 0.0
2018-Feb-13 13:30N 35°39' E 139°46'0 0.0
2018-Feb-13 13:00N 35°39' E 139°46'0 0.0
2018-Feb-13 12:28N 35°39' E 139°46'0 0.0
2018-Feb-13 11:59N 35°39' E 139°46'0 0.0
2018-Feb-13 11:30N 35°39' E 139°46'0 0.0
2018-Feb-13 11:01N 35°39' E 139°46'0 0.0
2018-Feb-13 10:30N 35°39' E 139°46'0 0.0
2018-Feb-13 09:58N 35°39' E 139°46'0 0.0
2018-Feb-13 09:30N 35°39' E 139°46'0 0.0
2018-Feb-13 09:00N 35°39' E 139°46'0 0.0
2018-Feb-13 08:26N 35°39' E 139°46'0 0.0
2018-Feb-13 08:00N 35°39' E 139°46'0 0.0
2018-Feb-13 07:30N 35°39' E 139°46'0 0.0
2018-Feb-13 06:43N 35°39' E 139°46'0 0.0
2018-Feb-13 06:30N 35°39' E 139°46'0 0.0
2018-Feb-13 05:49N 35°39' E 139°46'0 0.0
2018-Feb-13 05:12N 35°39' E 139°46'0 0.0
2018-Feb-13 04:49N 35°39' E 139°46'0 0.0
2018-Feb-13 00:39N 35°39' E 139°46'0 0.0
2018-Feb-13 00:17N 35°39' E 139°46'0 0.0
2018-Feb-12 23:43N 35°39' E 139°46'0 0.3
2018-Feb-12 23:21N 35°39' E 139°46'3 7.1
2018-Feb-12 22:58N 35°36' E 139°46'1 2.4
2018-Feb-12 22:30N 35°35' E 139°47'2 4.6
2018-Feb-12 21:59N 35°34' E 139°50'3 6.3
2018-Feb-12 21:29N 35°36' E 139°47'3 0.2
2018-Feb-12 09:05N 35°39' E 139°46'110.6
2018-Feb-12 09:00N 35°38' E 139°46'2 3.3
2018-Feb-12 08:30N 35°36' E 139°47'1 1.9
2018-Feb-12 07:59N 35°37' E 139°46'1 0.1
2018-Feb-11 22:43N 35°38' E 139°46'210.0
2018-Feb-11 22:30N 35°36' E 139°47'1 1.2
2018-Feb-11 21:58N 35°36' E 139°47'1 1.6
2018-Feb-11 21:30N 35°35' E 139°47'0 0.1
2018-Feb-11 21:00N 35°35' E 139°47'0 0.0
2018-Feb-11 20:30N 35°35' E 139°47'1 2.3
2018-Feb-11 20:00N 35°37' E 139°47'2 3.3
2018-Feb-11 19:30N 35°38' E 139°46'1 0.4
2018-Feb-11 17:17N 35°39' E 139°46'0 0.0
2018-Feb-11 16:42N 35°39' E 139°46'0 0.0
2018-Feb-11 16:27N 35°39' E 139°46'0 0.0
2018-Feb-11 05:27N 35°39' E 139°46'0 0.0
2018-Feb-11 04:59N 35°39' E 139°46'0 0.0
2018-Feb-11 03:18N 35°39' E 139°46'0 0.0
2018-Feb-11 02:28N 35°39' E 139°46'0 0.1
2018-Feb-10 23:08N 35°38' E 139°46'110.8
2018-Feb-10 23:01N 35°37' E 139°46'1 2.5
2018-Feb-10 22:30N 35°36' E 139°47'3 6.9
2018-Feb-10 22:00N 35°34' E 139°50'0 0.6
2018-Feb-10 21:29N 35°34' E 139°50'3 6.8
2018-Feb-10 21:00N 35°36' E 139°47'2 4.1
2018-Feb-10 20:30N 35°38' E 139°46'1 0.3
2018-Feb-10 17:59N 35°39' E 139°46'0 0.0
2018-Feb-10 17:29N 35°39' E 139°46'0 0.0
2018-Feb-10 16:58N 35°39' E 139°46'0 0.0
2018-Feb-10 16:26N 35°39' E 139°46'0 0.0
2018-Feb-10 12:25N 35°39' E 139°46'0 0.0
2018-Feb-10 11:54N 35°39' E 139°46'0 0.0
2018-Feb-10 10:11N 35°39' E 139°46'0 0.0
2018-Feb-10 09:58N 35°39' E 139°46'  

Dump ship's entire track history